createdAt,value
2018-08-25T00:00:29.182Z,55.23
2018-08-25T00:02:57.550Z,55.09
2018-08-25T00:05:25.942Z,55.21
2018-08-25T00:07:54.305Z,55.46
2018-08-25T00:10:22.686Z,54.96
2018-08-25T00:12:51.047Z,55.90
2018-08-25T00:15:19.474Z,55.51
2018-08-25T00:17:47.857Z,55.17
2018-08-25T00:20:16.252Z,56.09
2018-08-25T00:22:44.619Z,55.71
2018-08-25T00:25:13.006Z,55.65
2018-08-25T00:27:41.374Z,56.19
2018-08-25T00:30:15.007Z,56.23
2018-08-25T00:32:43.378Z,56.23
2018-08-25T00:35:11.775Z,56.50
2018-08-25T00:37:40.153Z,56.59
2018-08-25T00:40:08.566Z,57.46
2018-08-25T00:42:36.943Z,56.93
2018-08-25T00:45:05.449Z,57.48
2018-08-25T00:47:33.889Z,57.11
2018-08-25T00:50:02.264Z,57.94
2018-08-25T00:52:30.717Z,57.07
2018-08-25T00:54:59.082Z,57.09
2018-08-25T00:57:27.489Z,57.88
2018-08-25T00:59:55.866Z,58.18
2018-08-25T01:02:24.713Z,57.94
2018-08-25T01:04:53.085Z,58.01
2018-08-25T01:07:21.677Z,57.50
2018-08-25T01:09:50.053Z,58.10
2018-08-25T01:12:18.449Z,57.64
2018-08-25T01:14:46.821Z,57.94
2018-08-25T01:17:15.205Z,58.01
2018-08-25T01:19:43.596Z,57.32
2018-08-25T01:22:12.126Z,57.44
2018-08-25T01:24:40.501Z,58.14
2018-08-25T01:27:08.894Z,57.74
2018-08-25T01:29:37.259Z,58.04
2018-08-25T01:32:05.662Z,58.29
2018-08-25T01:34:34.027Z,58.46
2018-08-25T01:37:02.422Z,59.77
2018-08-25T01:39:31.081Z,58.88
2018-08-25T01:41:59.475Z,59.91
2018-08-25T01:44:27.856Z,59.57
2018-08-25T01:46:56.262Z,59.71
2018-08-25T01:49:24.631Z,60.52
2018-08-25T01:51:53.018Z,60.72
2018-08-25T01:54:21.410Z,60.39
2018-08-25T01:56:49.795Z,61.01
2018-08-25T01:59:18.194Z,61.82
2018-08-25T02:01:46.587Z,61.20
2018-08-25T02:04:15.098Z,62.13
2018-08-25T02:06:43.492Z,61.81
2018-08-25T02:09:13.674Z,62.36
2018-08-25T02:11:42.411Z,62.77
2018-08-25T02:14:11.578Z,63.23
2018-08-25T02:16:40.707Z,63.43
2018-08-25T02:19:09.102Z,64.16
2018-08-25T02:21:37.770Z,64.11
2018-08-25T02:24:06.331Z,63.89
2018-08-25T02:26:34.731Z,63.65
2018-08-25T02:29:03.106Z,63.83
2018-08-25T02:31:31.498Z,64.64
2018-08-25T02:33:59.914Z,64.11
2018-08-25T02:36:28.301Z,64.47
2018-08-25T02:38:56.678Z,64.06
2018-08-25T02:41:25.074Z,63.50
2018-08-25T02:43:53.475Z,63.66
2018-08-25T02:46:21.843Z,63.52
2018-08-25T02:48:50.241Z,62.51
2018-08-25T02:51:18.623Z,62.48
2018-08-25T02:53:47.014Z,62.77
2018-08-25T02:56:15.398Z,62.43
2018-08-25T02:58:43.799Z,62.90
2018-08-25T03:01:12.177Z,63.00
2018-08-25T03:03:40.574Z,62.40
2018-08-25T03:06:08.954Z,62.22
2018-08-25T03:08:37.359Z,61.87
2018-08-25T03:11:05.739Z,61.63
2018-08-25T03:13:34.405Z,61.91
2018-08-25T03:16:02.750Z,62.42
2018-08-25T03:18:31.170Z,61.96
2018-08-25T03:20:59.539Z,62.57
2018-08-25T03:23:27.939Z,62.03
2018-08-25T03:25:56.318Z,63.24
2018-08-25T03:28:24.714Z,63.08
2018-08-25T03:30:53.088Z,62.81
2018-08-25T03:33:21.481Z,63.61
2018-08-25T03:35:49.858Z,63.89
2018-08-25T03:38:18.263Z,64.10
2018-08-25T03:40:46.639Z,64.40
2018-08-25T03:43:15.038Z,63.96
2018-08-25T03:45:43.416Z,64.76
2018-08-25T03:48:11.805Z,64.53
2018-08-25T03:50:40.191Z,64.40
2018-08-25T03:53:08.595Z,64.71
2018-08-25T03:55:36.967Z,64.46
2018-08-25T03:58:05.367Z,64.43
2018-08-25T04:00:33.743Z,64.01
2018-08-25T04:03:02.148Z,64.12
2018-08-25T04:05:30.519Z,63.79
2018-08-25T04:07:58.910Z,63.75
2018-08-25T04:10:27.291Z,63.89
2018-08-25T04:12:55.690Z,63.69
2018-08-25T04:15:24.063Z,63.83
2018-08-25T04:17:52.488Z,63.82
2018-08-25T04:20:20.979Z,63.27
2018-08-25T04:22:49.381Z,64.27
2018-08-25T04:25:17.765Z,63.39
2018-08-25T04:27:46.163Z,64.18
2018-08-25T04:30:14.707Z,63.87
2018-08-25T04:32:43.107Z,64.05
2018-08-25T04:35:11.478Z,63.70
2018-08-25T04:37:39.880Z,64.06
2018-08-25T04:40:08.263Z,63.55
2018-08-25T04:42:36.634Z,63.48
2018-08-25T04:45:05.034Z,63.62
2018-08-25T04:47:33.415Z,63.47
2018-08-25T04:50:01.814Z,64.21
2018-08-25T04:52:30.204Z,64.51
2018-08-25T04:54:58.597Z,64.39
2018-08-25T04:57:27.070Z,64.15
2018-08-25T04:59:55.467Z,63.65
2018-08-25T05:02:23.834Z,63.73
2018-08-25T05:04:52.382Z,63.83
2018-08-25T05:07:20.765Z,64.16
2018-08-25T05:09:49.171Z,63.49
2018-08-25T05:12:17.548Z,63.51
2018-08-25T05:14:45.947Z,63.46
2018-08-25T05:17:14.318Z,62.63
2018-08-25T05:19:42.744Z,63.51
2018-08-25T05:22:11.115Z,63.67
2018-08-25T05:24:39.510Z,63.12
2018-08-25T05:27:07.883Z,63.00
2018-08-25T05:29:36.278Z,62.33
2018-08-25T05:32:04.670Z,62.09
2018-08-25T05:34:33.066Z,62.04
2018-08-25T05:37:01.450Z,63.05
2018-08-25T05:39:29.845Z,62.15
2018-08-25T05:41:59.138Z,62.57
2018-08-25T05:44:27.543Z,61.83
2018-08-25T05:46:55.990Z,61.61
2018-08-25T05:49:24.408Z,62.28
2018-08-25T05:51:52.789Z,61.54
2018-08-25T05:54:21.185Z,61.40
2018-08-25T05:56:49.570Z,61.12
2018-08-25T05:59:17.981Z,61.41
2018-08-25T06:01:46.356Z,60.73
2018-08-25T06:04:14.755Z,61.23
2018-08-25T06:06:43.213Z,61.35
2018-08-25T06:09:12.789Z,61.69
2018-08-25T06:11:41.734Z,61.36
2018-08-25T06:14:10.150Z,60.82
2018-08-25T06:16:38.521Z,61.23
2018-08-25T06:19:07.184Z,61.66
2018-08-25T06:21:35.556Z,61.17
2018-08-25T06:24:03.951Z,61.17
2018-08-25T06:26:32.323Z,60.75
2018-08-25T06:29:00.714Z,60.67
2018-08-25T06:31:29.274Z,60.52
2018-08-25T06:33:57.666Z,60.27
2018-08-25T06:36:26.041Z,60.79
2018-08-25T06:38:54.443Z,60.17
2018-08-25T06:41:22.826Z,61.02
2018-08-25T06:43:51.215Z,60.03
2018-08-25T06:46:19.610Z,60.27
2018-08-25T06:48:47.978Z,59.81
2018-08-25T06:51:16.396Z,59.82
2018-08-25T06:53:44.770Z,59.83
2018-08-25T06:56:13.172Z,59.20
2018-08-25T06:58:41.546Z,59.60
2018-08-25T07:01:09.947Z,58.87
2018-08-25T07:03:38.314Z,58.12
2018-08-25T07:06:06.770Z,58.63
2018-08-25T07:08:35.110Z,57.90
2018-08-25T07:11:03.586Z,58.29
2018-08-25T07:13:31.954Z,57.73
2018-08-25T07:16:00.350Z,58.10
2018-08-25T07:18:28.753Z,57.86
2018-08-25T07:20:57.278Z,57.85
2018-08-25T07:23:25.643Z,57.51
2018-08-25T07:25:54.124Z,55.90
2018-08-25T07:28:22.432Z,56.34
2018-08-25T07:30:50.826Z,56.14
2018-08-25T07:33:19.191Z,55.13
2018-08-25T07:35:47.573Z,55.12
2018-08-25T07:38:16.022Z,55.32
2018-08-25T07:40:44.487Z,54.81
2018-08-25T07:43:12.858Z,54.59
2018-08-25T07:45:41.246Z,54.30
2018-08-25T07:48:09.622Z,54.25
2018-08-25T07:50:38.042Z,53.70
2018-08-25T07:53:06.410Z,52.38
2018-08-25T07:55:34.790Z,53.27
2018-08-25T07:58:03.159Z,52.73
2018-08-25T08:00:31.549Z,52.56
2018-08-25T08:02:59.913Z,52.01
2018-08-25T08:05:28.330Z,52.11
2018-08-25T08:07:56.694Z,52.57
2018-08-25T08:10:25.090Z,51.88
2018-08-25T08:12:53.460Z,51.81
2018-08-25T08:15:21.846Z,52.16
2018-08-25T08:17:50.247Z,51.33
2018-08-25T08:20:18.647Z,51.55
2018-08-25T08:22:47.022Z,51.09
2018-08-25T08:25:15.414Z,51.11
2018-08-25T08:27:43.798Z,51.11
2018-08-25T08:30:12.199Z,50.20
2018-08-25T08:32:40.574Z,48.80
2018-08-25T08:35:09.327Z,48.25
2018-08-25T08:37:37.714Z,47.54
2018-08-25T08:40:06.151Z,48.15
2018-08-25T08:42:34.531Z,48.02
2018-08-25T08:45:02.899Z,47.19
2018-08-25T08:47:31.336Z,45.46
2018-08-25T08:49:59.865Z,45.31
2018-08-25T08:52:28.398Z,44.39
2018-08-25T08:54:56.800Z,43.37
2018-08-25T08:57:25.190Z,44.35
2018-08-25T08:59:53.560Z,42.53
2018-08-25T09:02:21.955Z,42.73
2018-08-25T09:04:50.320Z,42.07
2018-08-25T09:07:18.718Z,42.53
2018-08-25T09:09:47.096Z,43.47
2018-08-25T09:12:15.493Z,42.18
2018-08-25T09:14:43.858Z,41.92
2018-08-25T09:17:12.249Z,41.33
2018-08-25T09:19:40.644Z,41.48
2018-08-25T09:22:09.043Z,40.66
2018-08-25T09:24:37.574Z,40.51
2018-08-25T09:27:06.093Z,39.40
2018-08-25T09:29:34.454Z,39.07
2018-08-25T09:32:03.247Z,39.53
2018-08-25T09:34:31.619Z,39.79
2018-08-25T09:37:00.214Z,39.71
2018-08-25T09:39:28.443Z,39.67
2018-08-25T09:41:56.830Z,39.00
2018-08-25T09:44:25.212Z,39.19
2018-08-25T09:46:53.671Z,40.37
2018-08-25T09:49:22.026Z,40.31
2018-08-25T09:51:50.443Z,39.95
2018-08-25T09:54:18.811Z,39.87
2018-08-25T09:56:47.215Z,39.97
2018-08-25T09:59:15.574Z,39.05
2018-08-25T10:01:49.263Z,39.33
2018-08-25T10:04:17.631Z,38.46
2018-08-25T10:06:46.018Z,39.18
2018-08-25T10:09:14.387Z,38.09
2018-08-25T10:11:42.779Z,38.96
2018-08-25T10:14:11.157Z,38.31
2018-08-25T10:16:39.582Z,38.56
2018-08-25T10:19:07.967Z,38.27
2018-08-25T10:21:36.426Z,37.78
2018-08-25T10:24:04.794Z,37.47
2018-08-25T10:26:33.179Z,37.53
2018-08-25T10:29:01.659Z,37.95
2018-08-25T10:31:29.974Z,36.69
2018-08-25T10:33:58.352Z,36.40
2018-08-25T10:36:26.819Z,36.30
2018-08-25T10:38:55.210Z,36.60
2018-08-25T10:41:23.574Z,36.45
2018-08-25T10:43:51.955Z,37.52
2018-08-25T10:46:20.553Z,37.10
2018-08-25T10:48:49.055Z,35.73
2018-08-25T10:51:17.446Z,35.15
2018-08-25T10:53:45.868Z,35.76
2018-08-25T10:56:14.239Z,35.47
2018-08-25T10:58:42.638Z,35.42
2018-08-25T11:01:11.092Z,35.56
2018-08-25T11:03:39.436Z,35.84
2018-08-25T11:06:08.015Z,35.96
2018-08-25T11:08:36.411Z,36.86
2018-08-25T11:11:04.778Z,37.21
2018-08-25T11:13:33.896Z,37.36
2018-08-25T11:16:02.282Z,36.88
2018-08-25T11:18:30.707Z,37.85
2018-08-25T11:20:59.599Z,36.96
2018-08-25T11:23:28.202Z,37.88
2018-08-25T11:25:56.576Z,37.25
2018-08-25T11:28:24.963Z,38.64
2018-08-25T11:30:53.326Z,37.74
2018-08-25T11:33:21.718Z,37.56
2018-08-25T11:35:50.090Z,37.36
2018-08-25T11:38:18.576Z,37.13
2018-08-25T11:40:46.946Z,37.49
2018-08-25T11:43:15.338Z,36.53
2018-08-25T11:45:43.708Z,36.37
2018-08-25T11:48:12.128Z,36.11
2018-08-25T11:50:40.490Z,37.56
2018-08-25T11:53:08.895Z,37.40
2018-08-25T11:55:37.262Z,35.21
2018-08-25T11:58:05.656Z,35.84
2018-08-25T12:00:34.056Z,36.43
2018-08-25T12:03:03.833Z,35.40
2018-08-25T12:05:30.910Z,35.49
2018-08-25T12:07:59.440Z,34.50
2018-08-25T12:10:27.807Z,35.41
2018-08-25T12:12:56.211Z,34.65
2018-08-25T12:15:24.587Z,34.92
2018-08-25T12:17:52.995Z,35.00
2018-08-25T12:20:21.375Z,35.21
2018-08-25T12:22:49.775Z,35.88
2018-08-25T12:25:18.142Z,35.79
2018-08-25T12:27:46.530Z,36.38
2018-08-25T12:30:14.951Z,36.27
2018-08-25T12:32:43.752Z,35.95
2018-08-25T12:35:12.288Z,36.39
2018-08-25T12:37:40.808Z,36.11
2018-08-25T12:40:09.740Z,37.27
2018-08-25T12:42:38.119Z,39.09
2018-08-25T12:45:06.678Z,41.29
2018-08-25T12:47:35.282Z,41.96
2018-08-25T12:50:03.782Z,44.22
2018-08-25T12:52:32.377Z,46.87
2018-08-25T12:55:00.952Z,49.55
2018-08-25T12:57:29.647Z,51.10
2018-08-25T12:59:58.130Z,50.39
2018-08-25T13:02:26.571Z,53.17
2018-08-25T13:04:56.127Z,53.72
2018-08-25T13:07:24.670Z,54.38
2018-08-25T13:09:53.390Z,55.10
2018-08-25T13:12:21.772Z,55.21
2018-08-25T13:14:50.417Z,55.14
2018-08-25T13:17:18.846Z,55.80
2018-08-25T13:19:47.334Z,56.16
2018-08-25T13:22:16.000Z,56.16
2018-08-25T13:24:44.650Z,54.73
2018-08-25T13:27:13.206Z,54.38
2018-08-25T13:29:41.687Z,53.18
2018-08-25T13:32:10.358Z,51.94
2018-08-25T13:34:38.831Z,52.43
2018-08-25T13:37:07.505Z,53.51
2018-08-25T13:39:36.070Z,50.54
2018-08-25T13:42:04.554Z,50.35
2018-08-25T13:44:33.182Z,50.11
2018-08-25T13:47:01.554Z,47.84
2018-08-25T13:49:29.966Z,48.05
2018-08-25T13:51:58.344Z,49.45
2018-08-25T13:54:26.939Z,48.20
2018-08-25T13:56:55.363Z,46.81
2018-08-25T13:59:23.819Z,47.28
2018-08-25T14:01:52.350Z,46.13
2018-08-25T14:04:20.743Z,45.73
2018-08-25T14:06:49.119Z,45.59
2018-08-25T14:09:17.519Z,45.57
2018-08-25T14:11:46.002Z,45.96
2018-08-25T14:14:14.463Z,44.06
2018-08-25T14:16:42.851Z,43.70
2018-08-25T14:19:11.275Z,44.22
2018-08-25T14:21:39.868Z,44.58
2018-08-25T14:24:08.387Z,44.01
2018-08-25T14:26:36.866Z,43.98
2018-08-25T14:29:05.586Z,44.00
2018-08-25T14:31:33.960Z,43.18
2018-08-25T14:34:02.459Z,42.91
2018-08-25T14:36:30.930Z,43.09
2018-08-25T14:38:59.473Z,43.64
2018-08-25T14:41:27.994Z,43.15
2018-08-25T14:43:56.369Z,43.14
2018-08-25T14:46:24.875Z,43.69
2018-08-25T14:48:53.362Z,43.42
2018-08-25T14:51:22.104Z,43.64
2018-08-25T14:53:50.573Z,43.44
2018-08-25T14:56:18.982Z,43.59
2018-08-25T14:58:47.521Z,44.15
2018-08-25T15:01:16.185Z,43.47
2018-08-25T15:03:44.774Z,44.34
2018-08-25T15:06:13.564Z,43.41
2018-08-25T15:08:42.062Z,42.83
2018-08-25T15:11:10.618Z,43.10
2018-08-25T15:13:39.146Z,43.51
2018-08-25T15:16:07.634Z,44.30
2018-08-25T15:18:36.251Z,43.44
2018-08-25T15:21:04.637Z,42.96
2018-08-25T15:23:33.015Z,42.78
2018-08-25T15:26:01.427Z,43.05
2018-08-25T15:28:29.882Z,43.56
2018-08-25T15:30:58.314Z,43.78
2018-08-25T15:33:26.855Z,43.62
2018-08-25T15:35:55.250Z,43.64
2018-08-25T15:38:23.627Z,44.37
2018-08-25T15:40:52.025Z,43.83
2018-08-25T15:43:20.406Z,43.66
2018-08-25T15:45:48.805Z,43.62
2018-08-25T15:48:17.178Z,44.07
2018-08-25T15:50:45.580Z,43.59
2018-08-25T15:53:13.947Z,43.58
2018-08-25T15:55:42.339Z,43.10
2018-08-25T15:58:10.706Z,43.56
2018-08-25T16:00:39.098Z,43.59
2018-08-25T16:03:07.478Z,43.03
2018-08-25T16:05:35.868Z,43.39
2018-08-25T16:08:04.390Z,43.21
2018-08-25T16:10:32.783Z,42.84
2018-08-25T16:13:01.158Z,43.90
2018-08-25T16:15:29.761Z,44.05
2018-08-25T16:17:58.157Z,44.88
2018-08-25T16:20:26.573Z,46.35
2018-08-25T16:22:55.062Z,47.51
2018-08-25T16:25:23.455Z,47.95
2018-08-25T16:27:52.027Z,48.72
2018-08-25T16:30:20.426Z,48.44
2018-08-25T16:32:48.793Z,48.75
2018-08-25T16:35:17.182Z,49.08
2018-08-25T16:37:45.550Z,49.69
2018-08-25T16:40:13.955Z,49.71
2018-08-25T16:42:42.353Z,49.98
2018-08-25T16:45:10.731Z,49.75
2018-08-25T16:47:39.130Z,48.77
2018-08-25T16:50:07.541Z,48.87
2018-08-25T16:52:36.262Z,48.81
2018-08-25T16:55:04.655Z,48.51
2018-08-25T16:57:33.057Z,48.83
2018-08-25T17:00:01.565Z,48.98
2018-08-25T17:02:29.970Z,47.80
2018-08-25T17:04:58.338Z,47.63
2018-08-25T17:07:26.738Z,46.21
2018-08-25T17:09:55.158Z,46.78
2018-08-25T17:12:23.571Z,45.95
2018-08-25T17:14:51.950Z,46.25
2018-08-25T17:17:20.992Z,46.97
2018-08-25T17:19:49.390Z,47.15
2018-08-25T17:22:17.779Z,47.58
2018-08-25T17:24:46.155Z,48.83
2018-08-25T17:27:14.550Z,48.30
2018-08-25T17:29:42.912Z,49.43
2018-08-25T17:32:11.327Z,49.71
2018-08-25T17:34:39.696Z,50.21
2018-08-25T17:37:08.082Z,50.58
2018-08-25T17:39:36.451Z,50.92
2018-08-25T17:42:04.850Z,51.65
2018-08-25T17:44:33.206Z,52.39
2018-08-25T17:47:01.603Z,52.18
2018-08-25T17:49:30.017Z,53.07
2018-08-25T17:51:58.440Z,52.79
2018-08-25T17:54:26.819Z,53.61
2018-08-25T17:56:55.237Z,54.01
2018-08-25T17:59:23.607Z,54.55
2018-08-25T18:01:52.003Z,54.02
2018-08-25T18:04:20.376Z,55.04
2018-08-25T18:06:48.763Z,54.93
2018-08-25T18:09:17.122Z,55.04
2018-08-25T18:11:45.511Z,55.48
2018-08-25T18:14:14.098Z,55.65
2018-08-25T18:16:42.762Z,56.11
2018-08-25T18:19:11.158Z,56.04
2018-08-25T18:21:39.558Z,56.53
2018-08-25T18:24:07.921Z,56.52
2018-08-25T18:26:36.318Z,56.92
2018-08-25T18:29:04.807Z,57.10
2018-08-25T18:31:33.205Z,57.85
2018-08-25T18:34:01.575Z,58.03
2018-08-25T18:36:29.979Z,57.43
2018-08-25T18:38:58.355Z,57.82
2018-08-25T18:41:26.748Z,57.70
2018-08-25T18:43:55.123Z,58.02
2018-08-25T18:46:23.496Z,58.06
2018-08-25T18:48:51.889Z,57.60
2018-08-25T18:51:20.262Z,57.53
2018-08-25T18:53:48.647Z,57.23
2018-08-25T18:56:17.014Z,57.20
2018-08-25T18:58:45.423Z,57.32
2018-08-25T19:01:13.910Z,57.06
2018-08-25T19:03:42.398Z,57.30
2018-08-25T19:06:10.771Z,57.23
2018-08-25T19:08:39.201Z,57.38
2018-08-25T19:11:07.558Z,57.52
2018-08-25T19:13:35.942Z,57.27
2018-08-25T19:16:04.377Z,57.06
2018-08-25T19:18:32.797Z,57.40
2018-08-25T19:21:01.170Z,57.58
2018-08-25T19:23:29.558Z,57.75
2018-08-25T19:25:57.922Z,58.38
2018-08-25T19:28:26.502Z,58.31
2018-08-25T19:30:54.957Z,58.35
2018-08-25T19:33:23.337Z,58.39
2018-08-25T19:35:51.983Z,58.38
2018-08-25T19:38:20.379Z,58.34
2018-08-25T19:40:48.780Z,58.59
2018-08-25T19:43:17.175Z,59.08
2018-08-25T19:45:45.547Z,59.58
2018-08-25T19:48:13.938Z,58.96
2018-08-25T19:50:42.303Z,59.84
2018-08-25T19:53:10.745Z,59.62
2018-08-25T19:55:39.104Z,60.32
2018-08-25T19:58:07.495Z,60.65
2018-08-25T20:00:35.939Z,60.81
2018-08-25T20:03:04.334Z,61.15
2018-08-25T20:05:32.862Z,61.10
2018-08-25T20:08:01.119Z,61.13
2018-08-25T20:10:29.484Z,60.89
2018-08-25T20:12:57.883Z,61.24
2018-08-25T20:15:26.284Z,61.92
2018-08-25T20:17:54.687Z,61.77
2018-08-25T20:20:23.138Z,62.35
2018-08-25T20:22:51.539Z,62.13
2018-08-25T20:25:19.902Z,62.79
2018-08-25T20:27:48.302Z,62.76
2018-08-25T20:30:16.750Z,62.99
2018-08-25T20:32:45.096Z,63.53
2018-08-25T20:35:13.472Z,63.78
2018-08-25T20:37:41.863Z,63.94
2018-08-25T20:40:10.235Z,63.41
2018-08-25T20:42:38.628Z,63.78
2018-08-25T20:45:06.999Z,64.22
2018-08-25T20:47:35.419Z,63.67
2018-08-25T20:50:03.820Z,63.91
2018-08-25T20:52:32.191Z,63.96
2018-08-25T20:55:00.577Z,64.61
2018-08-25T20:57:28.949Z,64.37
2018-08-25T20:59:57.330Z,64.90
2018-08-25T21:02:25.690Z,64.93
2018-08-25T21:04:55.873Z,65.37
2018-08-25T21:07:24.246Z,65.19
2018-08-25T21:09:52.638Z,65.30
2018-08-25T21:12:21.187Z,65.38
2018-08-25T21:14:49.578Z,65.93
2018-08-25T21:17:17.993Z,66.27
2018-08-25T21:19:46.418Z,66.65
2018-08-25T21:22:15.019Z,66.72
2018-08-25T21:24:43.618Z,66.49
2018-08-25T21:27:11.988Z,66.67
2018-08-25T21:29:40.391Z,66.65
2018-08-25T21:32:08.754Z,67.60
2018-08-25T21:34:37.138Z,67.45
2018-08-25T21:37:05.503Z,68.00
2018-08-25T21:39:33.998Z,68.15
2018-08-25T21:42:02.366Z,67.51
2018-08-25T21:44:30.768Z,68.17
2018-08-25T21:46:59.138Z,68.94
2018-08-25T21:49:27.522Z,68.33
2018-08-25T21:51:55.896Z,68.31
2018-08-25T21:54:24.287Z,68.95
2018-08-25T21:56:52.657Z,68.28
2018-08-25T21:59:21.051Z,68.65
2018-08-25T22:01:54.899Z,68.57
2018-08-25T22:04:23.292Z,68.78
2018-08-25T22:06:51.658Z,69.70
2018-08-25T22:09:20.079Z,69.01
2018-08-25T22:11:48.446Z,68.78
2018-08-25T22:14:16.842Z,68.83
2018-08-25T22:16:45.211Z,69.12
2018-08-25T22:19:13.642Z,69.64
2018-08-25T22:21:42.032Z,69.77
2018-08-25T22:24:10.422Z,69.79
2018-08-25T22:26:38.792Z,69.22
2018-08-25T22:29:07.179Z,70.12
2018-08-25T22:31:35.542Z,70.54
2018-08-25T22:34:03.934Z,70.61
2018-08-25T22:36:32.307Z,70.50
2018-08-25T22:39:00.704Z,70.52
2018-08-25T22:41:29.185Z,69.94
2018-08-25T22:43:57.499Z,69.91
2018-08-25T22:46:25.866Z,70.36
2018-08-25T22:48:54.249Z,69.85
2018-08-25T22:51:22.691Z,70.79
2018-08-25T22:53:51.043Z,70.97
2018-08-25T22:56:19.439Z,70.31
2018-08-25T22:58:47.814Z,70.88
2018-08-25T23:01:16.225Z,71.17
2018-08-25T23:03:44.595Z,70.42
2018-08-25T23:06:12.987Z,70.36
2018-08-25T23:08:41.359Z,70.57
2018-08-25T23:11:09.737Z,71.88
2018-08-25T23:13:38.108Z,71.03
2018-08-25T23:16:06.486Z,71.57
2018-08-25T23:18:34.870Z,72.11
2018-08-25T23:21:03.383Z,71.23
2018-08-25T23:23:31.746Z,71.57
2018-08-25T23:26:00.208Z,71.61
2018-08-25T23:28:28.574Z,71.97
2018-08-25T23:30:56.957Z,72.14
2018-08-25T23:33:25.332Z,72.58
2018-08-25T23:35:53.736Z,72.19
2018-08-25T23:38:22.096Z,72.49
2018-08-25T23:40:50.486Z,72.83
2018-08-25T23:43:18.862Z,72.78
2018-08-25T23:45:47.255Z,73.02
2018-08-25T23:48:15.612Z,73.23
2018-08-25T23:50:44.003Z,72.79
2018-08-25T23:53:12.375Z,73.19
2018-08-25T23:55:40.766Z,73.38
2018-08-25T23:58:09.142Z,73.67
